createdAt,value
2022-10-18T00:01:07.883Z,101087.52
2022-10-18T00:06:15.681Z,101084.45
2022-10-18T00:08:43.743Z,101090.20
2022-10-18T00:11:11.966Z,101092.99
2022-10-18T00:13:40.069Z,101091.80
2022-10-18T00:16:12.237Z,101093.61
2022-10-18T00:18:39.999Z,101091.41
2022-10-18T00:21:11.544Z,101092.55
2022-10-18T00:23:40.584Z,101087.98
2022-10-18T00:26:27.049Z,101090.14
2022-10-18T00:29:00.445Z,101089.20
2022-10-18T00:31:32.440Z,101087.75
2022-10-18T00:34:14.177Z,101092.23
2022-10-18T00:36:43.087Z,101093.67
2022-10-18T00:39:18.940Z,101088.31
2022-10-18T00:41:49.406Z,101085.23
2022-10-18T00:44:33.144Z,101090.48
2022-10-18T00:47:07.377Z,101085.48
2022-10-18T00:49:44.418Z,101083.18
2022-10-18T00:52:23.062Z,101085.84
2022-10-18T00:54:52.407Z,101078.31
2022-10-18T00:57:20.301Z,101078.83
2022-10-18T00:59:48.411Z,101076.48
2022-10-18T01:02:19.038Z,101072.31
2022-10-18T01:04:48.317Z,101073.05
2022-10-18T01:07:35.640Z,101073.29
2022-10-18T01:10:03.683Z,101069.07
2022-10-18T01:12:34.730Z,101067.73
2022-10-18T01:15:11.955Z,101067.70
2022-10-18T01:18:19.264Z,101070.10
2022-10-18T01:21:10.259Z,101068.90
2022-10-18T01:23:59.969Z,101069.37
2022-10-18T01:26:53.877Z,101071.19
2022-10-18T01:29:41.471Z,101072.13
2022-10-18T01:32:20.780Z,101072.13
2022-10-18T01:34:54.101Z,101070.73
2022-10-18T01:37:22.639Z,101072.26
2022-10-18T01:39:54.454Z,101073.69
2022-10-18T01:42:22.684Z,101063.83
2022-10-18T01:44:53.530Z,101065.64
2022-10-18T01:47:21.811Z,101067.61
2022-10-18T01:49:49.626Z,101062.48
2022-10-18T01:52:17.574Z,101060.61
2022-10-18T01:54:50.904Z,101062.23
2022-10-18T01:57:29.511Z,101064.66
2022-10-18T02:00:12.809Z,101059.95
2022-10-18T02:02:49.408Z,101054.11
2022-10-18T02:05:40.918Z,101053.83
2022-10-18T02:08:27.447Z,101050.46
2022-10-18T02:11:14.038Z,101050.64
2022-10-18T02:13:44.560Z,101049.02
2022-10-18T02:16:17.410Z,101053.20
2022-10-18T02:19:08.238Z,101060.55
2022-10-18T02:21:39.072Z,101055.54
2022-10-18T02:24:10.015Z,101053.28
2022-10-18T02:26:38.116Z,101054.55
2022-10-18T02:29:06.045Z,101054.48
2022-10-18T02:31:47.675Z,101047.98
2022-10-18T02:34:24.423Z,101046.42
2022-10-18T02:36:57.634Z,101047.64
2022-10-18T02:39:33.447Z,101053.60
2022-10-18T02:42:07.073Z,101058.33
2022-10-18T02:44:39.191Z,101057.71
2022-10-18T02:47:11.188Z,101059.39
2022-10-18T02:49:39.077Z,101063.33
2022-10-18T02:52:06.970Z,101059.25
2022-10-18T02:54:36.848Z,101059.14
2022-10-18T02:57:06.442Z,101067.85
2022-10-18T02:59:35.577Z,101070.27
2022-10-18T03:02:03.767Z,101068.20
2022-10-18T03:04:51.600Z,101070.10
2022-10-18T03:07:19.554Z,101072.55
2022-10-18T03:09:50.029Z,101072.16
2022-10-18T03:12:18.193Z,101073.48
2022-10-18T03:14:46.154Z,101076.23
2022-10-18T03:17:14.641Z,101079.42
2022-10-18T03:19:45.423Z,101077.59
2022-10-18T03:22:13.405Z,101080.05
2022-10-18T03:24:43.786Z,101079.85
2022-10-18T03:27:11.631Z,101079.59
2022-10-18T03:29:40.619Z,101078.09
2022-10-18T03:32:08.740Z,101082.17
2022-10-18T03:34:36.513Z,101083.39
2022-10-18T03:37:06.638Z,101084.28
2022-10-18T03:39:34.595Z,101089.53
2022-10-18T03:42:02.848Z,101090.32
2022-10-18T03:44:30.622Z,101089.10
2022-10-18T03:46:58.436Z,101091.11
2022-10-18T03:49:29.984Z,101096.96
2022-10-18T03:51:58.085Z,101098.48
2022-10-18T03:54:26.282Z,101100.77
2022-10-18T03:57:00.831Z,101101.16
2022-10-18T03:59:31.639Z,101098.99
2022-10-18T04:02:00.139Z,101103.02
2022-10-18T04:04:31.076Z,101106.35
2022-10-18T04:06:59.330Z,101106.40
2022-10-18T04:25:32.505Z,101121.52
2022-10-18T04:28:00.718Z,101117.68
2022-10-18T04:30:30.721Z,101120.30
2022-10-18T04:32:58.794Z,101119.36
2022-10-18T04:35:28.378Z,101119.30
2022-10-18T04:38:00.232Z,101121.65
2022-10-18T04:40:28.377Z,101120.98
2022-10-18T04:42:59.050Z,101118.46
2022-10-18T04:45:27.260Z,101116.90
2022-10-18T04:47:55.659Z,101117.80
2022-10-18T04:50:34.899Z,101115.30
2022-10-18T04:53:20.917Z,101119.59
2022-10-18T04:55:50.983Z,101116.57
2022-10-18T04:58:21.308Z,101116.69
2022-10-18T05:00:50.606Z,101115.50
2022-10-18T05:03:20.178Z,101114.50
2022-10-18T05:06:03.934Z,101112.25
2022-10-18T05:08:33.774Z,101110.88
2022-10-18T05:11:02.649Z,101108.52
2022-10-18T05:13:33.558Z,101123.91
2022-10-18T05:16:36.651Z,101118.19
2022-10-18T05:19:05.868Z,101115.80
2022-10-18T05:21:36.363Z,101113.79
2022-10-18T05:24:09.206Z,101110.66
2022-10-18T05:26:40.777Z,101104.09
2022-10-18T05:29:13.194Z,101102.69
2022-10-18T05:31:41.491Z,101101.96
2022-10-18T05:34:09.878Z,101103.20
2022-10-18T05:36:37.823Z,101103.80
2022-10-18T05:39:09.834Z,101105.48
2022-10-18T05:41:41.183Z,101104.27
2022-10-18T05:44:11.522Z,101097.30
2022-10-18T05:57:12.775Z,101102.58
2022-10-18T05:59:41.033Z,101104.23
2022-10-18T06:02:16.549Z,101100.20
2022-10-18T06:04:50.950Z,101099.30
2022-10-18T06:07:20.523Z,101103.71
2022-10-18T06:10:02.020Z,101104.93
2022-10-18T06:12:32.611Z,101110.89
2022-10-18T06:15:00.431Z,101115.55
2022-10-18T06:22:05.374Z,101117.48
2022-10-18T06:24:40.986Z,101114.73
2022-10-18T06:27:10.222Z,101114.50
2022-10-18T06:29:40.713Z,101116.13
2022-10-18T06:32:23.866Z,101117.34
2022-10-18T06:34:53.975Z,101113.73
2022-10-18T06:37:22.158Z,101115.55
2022-10-18T06:39:53.430Z,101114.64
2022-10-18T06:42:24.091Z,101117.98
2022-10-18T06:44:52.079Z,101119.70
2022-10-18T06:47:25.371Z,101118.45
2022-10-18T06:49:53.175Z,101122.41
2022-10-18T06:52:25.632Z,101124.23
2022-10-18T06:54:55.953Z,101125.77
2022-10-18T06:57:23.830Z,101128.48
2022-10-18T06:59:51.991Z,101127.94
2022-10-18T07:02:20.007Z,101128.59
2022-10-18T07:04:48.027Z,101130.77
2022-10-18T07:07:18.291Z,101133.98
2022-10-18T07:09:50.768Z,101129.20
2022-10-18T07:12:23.301Z,101136.48
2022-10-18T07:14:54.720Z,101136.89
2022-10-18T07:17:25.433Z,101139.95
2022-10-18T07:19:53.464Z,101139.27
2022-10-18T07:22:21.519Z,101141.17
2022-10-18T07:24:49.535Z,101140.38
2022-10-18T07:27:17.590Z,101136.04
2022-10-18T07:29:57.051Z,101139.94
2022-10-18T07:32:32.227Z,101142.36
2022-10-18T07:35:07.136Z,101142.41
2022-10-18T07:37:50.966Z,101150.78
2022-10-18T07:40:20.424Z,101151.79
2022-10-18T07:42:52.885Z,101155.83
2022-10-18T07:45:25.218Z,101152.28
2022-10-18T07:48:21.475Z,101146.79
2022-10-18T07:51:12.697Z,101144.02
2022-10-18T07:53:41.324Z,101140.85
2022-10-18T07:56:38.750Z,101140.27
2022-10-18T07:59:07.063Z,101136.94
2022-10-18T08:01:36.609Z,101134.61
2022-10-18T08:04:27.436Z,101134.91
2022-10-18T08:07:00.326Z,101132.55
2022-10-18T08:09:32.427Z,101133.90
2022-10-18T08:12:00.964Z,101130.67
2022-10-18T08:14:31.282Z,101125.98
2022-10-18T08:17:03.858Z,101126.06
2022-10-18T08:19:33.270Z,101121.34
2022-10-18T08:22:07.617Z,101120.70
2022-10-18T08:24:40.162Z,101113.72
2022-10-18T08:27:08.336Z,101109.98
2022-10-18T08:29:36.569Z,101112.58
2022-10-18T08:32:12.579Z,101108.19
2022-10-18T08:34:42.041Z,101106.70
2022-10-18T08:37:11.072Z,101104.88
2022-10-18T08:39:38.953Z,101097.45
2022-10-18T08:42:44.442Z,101093.44
2022-10-18T08:45:29.752Z,101091.55
2022-10-18T08:48:01.742Z,101094.52
2022-10-18T08:50:35.508Z,101091.71
2022-10-18T08:53:23.655Z,101082.63
2022-10-18T08:56:14.704Z,101075.19
2022-10-18T08:58:46.517Z,101063.20
2022-10-18T09:01:18.612Z,101056.23
2022-10-18T09:04:16.159Z,101057.67
2022-10-18T09:06:54.275Z,101054.88
2022-10-18T09:09:44.054Z,101052.96
2022-10-18T09:12:30.063Z,101053.94
2022-10-18T09:15:17.334Z,101056.46
2022-10-18T09:18:13.791Z,101052.20
2022-10-18T09:20:58.270Z,101047.15
2022-10-18T09:23:44.641Z,101041.64
2022-10-18T09:26:19.324Z,101034.54
2022-10-18T09:29:03.430Z,101037.18
2022-10-18T09:31:37.877Z,101036.80
2022-10-18T09:34:13.536Z,101032.55
2022-10-18T09:36:42.446Z,101031.09
2022-10-18T09:39:13.032Z,101027.00
2022-10-18T09:41:45.890Z,101021.88
2022-10-18T09:44:51.404Z,101017.57
2022-10-18T09:47:24.854Z,101011.38
2022-10-18T09:49:58.495Z,101012.89
2022-10-18T09:52:39.809Z,101010.13
2022-10-18T09:55:18.871Z,101010.42
2022-10-18T09:57:50.501Z,101005.68
2022-10-18T10:00:28.219Z,100997.80
2022-10-18T10:02:59.869Z,100993.77
2022-10-18T10:05:28.101Z,100991.53
2022-10-18T10:08:02.609Z,100990.27
2022-10-18T10:10:30.869Z,100977.95
2022-10-18T10:13:05.784Z,100967.74
2022-10-18T10:15:38.287Z,100965.11
2022-10-18T10:18:38.702Z,100971.29
2022-10-18T10:21:08.410Z,100982.20
2022-10-18T10:23:38.861Z,100981.74
2022-10-18T10:26:31.211Z,100978.25
2022-10-18T10:29:02.840Z,100981.94
2022-10-18T10:31:31.888Z,100985.80
2022-10-18T10:34:05.424Z,100980.73
2022-10-18T10:36:34.172Z,100974.15
2022-10-18T10:39:19.382Z,100971.13
2022-10-18T10:41:53.136Z,100971.34
2022-10-18T10:44:51.601Z,100960.36
2022-10-18T10:47:41.757Z,100947.73
2022-10-18T10:50:19.510Z,100948.61
2022-10-18T10:52:49.734Z,100946.54
2022-10-18T10:55:37.630Z,100955.17
2022-10-18T11:01:45.257Z,100956.23
2022-10-18T11:04:29.442Z,100957.86
2022-10-18T11:07:09.560Z,100951.28
2022-10-18T11:10:18.777Z,100939.88
2022-10-18T11:12:52.213Z,100938.16
2022-10-18T11:15:56.257Z,100934.23
2022-10-18T11:18:38.346Z,100925.16
2022-10-18T11:21:20.140Z,100925.30
2022-10-18T11:23:47.998Z,100928.84
2022-10-18T11:26:27.060Z,100916.57
2022-10-18T11:29:25.397Z,100903.30
2022-10-18T11:32:12.517Z,100876.89
2022-10-18T11:34:58.913Z,100863.44
2022-10-18T11:37:47.581Z,100876.21
2022-10-18T11:40:33.976Z,100883.48
2022-10-18T11:43:34.448Z,100883.24
2022-10-18T11:47:11.080Z,100873.34
2022-10-18T11:50:11.718Z,100855.02
2022-10-18T11:53:20.343Z,100856.13
2022-10-18T11:56:00.260Z,100848.14
2022-10-18T11:59:06.534Z,100841.01
2022-10-18T12:01:40.872Z,100849.04
2022-10-18T12:04:28.091Z,100845.92
2022-10-18T12:07:00.735Z,100835.81
2022-10-18T12:09:37.499Z,100831.64
2022-10-18T12:12:11.681Z,100824.38
2022-10-18T12:15:03.600Z,100825.04
2022-10-18T12:17:43.918Z,100822.90
2022-10-18T12:20:25.859Z,100815.85
2022-10-18T12:23:01.631Z,100807.11
2022-10-18T12:25:33.628Z,100807.89
2022-10-18T12:28:39.052Z,100808.53
2022-10-18T12:32:33.390Z,100808.02
2022-10-18T12:35:17.617Z,100803.35
2022-10-18T12:37:57.617Z,100796.77
2022-10-18T12:40:38.284Z,100794.31
2022-10-18T12:43:17.385Z,100792.52
2022-10-18T12:45:57.112Z,100782.80
2022-10-18T12:48:37.710Z,100776.34
2022-10-18T12:51:25.558Z,100766.30
2022-10-18T12:54:16.809Z,100772.48
2022-10-18T12:56:48.049Z,100774.30
2022-10-18T12:59:20.442Z,100772.70
2022-10-18T13:02:02.501Z,100764.48
2022-10-18T13:05:01.541Z,100765.67
2022-10-18T13:08:40.699Z,100768.22
2022-10-18T13:14:13.278Z,100773.11
2022-10-18T13:16:58.825Z,100776.52
2022-10-18T13:20:20.438Z,100775.19
2022-10-18T13:23:12.920Z,100771.15
2022-10-18T13:26:04.100Z,100774.27
2022-10-18T13:29:03.485Z,100782.03
2022-10-18T13:31:50.662Z,100796.55
2022-10-18T13:34:48.891Z,100815.61
2022-10-18T13:37:24.886Z,100832.91
2022-10-18T13:40:31.102Z,100843.21
2022-10-18T13:43:43.923Z,100853.33
2022-10-18T13:46:11.752Z,100855.48
2022-10-18T13:48:39.518Z,100860.86
2022-10-18T13:51:50.472Z,100879.14
2022-10-18T13:54:30.308Z,100882.92
2022-10-18T13:57:35.878Z,100880.65
2022-10-18T14:00:24.943Z,100882.46
2022-10-18T14:03:32.096Z,100882.02
2022-10-18T14:06:05.204Z,100885.23
2022-10-18T14:08:40.448Z,100888.08
2022-10-18T14:11:30.132Z,100889.19
2022-10-18T14:14:06.935Z,100899.55
2022-10-18T14:16:40.434Z,100906.10
2022-10-18T14:19:19.967Z,100913.54
2022-10-18T14:22:17.024Z,100920.00
2022-10-18T14:24:47.944Z,100942.08
2022-10-18T14:27:22.782Z,100938.43
2022-10-18T14:30:08.114Z,100917.59
2022-10-18T14:32:36.407Z,100918.58
2022-10-18T14:37:54.634Z,100916.58
2022-10-18T14:40:41.159Z,100914.82
2022-10-18T14:43:08.946Z,100916.86
2022-10-18T14:45:37.926Z,100926.35
2022-10-18T14:48:16.895Z,100926.40
2022-10-18T14:50:47.241Z,100926.31
2022-10-18T14:53:22.097Z,100920.91
2022-10-18T14:56:00.657Z,100920.98
2022-10-18T14:58:28.713Z,100926.29
2022-10-18T15:00:57.333Z,100928.10
2022-10-18T15:03:26.204Z,100932.65
2022-10-18T15:06:01.675Z,100938.40
2022-10-18T15:08:35.747Z,100943.35
2022-10-18T15:11:24.972Z,100951.88
2022-10-18T15:14:00.652Z,100957.94
2022-10-18T15:16:31.076Z,100964.23
2022-10-18T15:19:30.351Z,100965.56
2022-10-18T15:22:30.140Z,100966.16
2022-10-18T15:25:08.616Z,100961.88
2022-10-18T15:27:38.540Z,100976.03
2022-10-18T15:30:08.623Z,100978.14
2022-10-18T15:33:05.346Z,100986.31
2022-10-18T15:35:38.407Z,100982.19
2022-10-18T15:38:24.083Z,100977.90
2022-10-18T15:40:55.509Z,100973.80
2022-10-18T15:43:23.245Z,100980.45
2022-10-18T15:46:08.037Z,100972.52
2022-10-18T15:48:42.217Z,100970.26
2022-10-18T15:51:32.169Z,100962.86
2022-10-18T15:54:00.162Z,100961.19
2022-10-18T15:56:50.929Z,100964.46
2022-10-18T15:59:27.949Z,100971.55
2022-10-18T16:02:01.194Z,100973.66
2022-10-18T16:04:30.890Z,100981.82
2022-10-18T16:06:59.921Z,100982.90
2022-10-18T16:09:28.833Z,100986.04
2022-10-18T16:12:00.201Z,100991.05
2022-10-18T16:14:28.572Z,100987.97
2022-10-18T16:17:02.236Z,100991.80
2022-10-18T16:19:31.193Z,100999.27
2022-10-18T16:22:05.178Z,101003.23
2022-10-18T16:24:35.433Z,101007.63
2022-10-18T16:27:05.881Z,101010.45
2022-10-18T16:29:33.806Z,101013.42
2022-10-18T16:32:01.591Z,101020.16
2022-10-18T16:34:32.685Z,101024.09
2022-10-18T16:37:00.446Z,101023.50
2022-10-18T16:39:29.937Z,101020.21
2022-10-18T16:41:57.814Z,101023.30
2022-10-18T16:44:25.578Z,101026.16
2022-10-18T16:46:57.454Z,101027.36
2022-10-18T16:49:26.414Z,101030.17
2022-10-18T16:51:54.682Z,101030.45
2022-10-18T16:54:24.530Z,101032.36
2022-10-18T16:56:52.505Z,101030.23
2022-10-18T16:59:31.513Z,101037.35
2022-10-18T17:02:07.699Z,101043.25
2022-10-18T17:04:37.630Z,101050.98
2022-10-18T17:07:05.632Z,101050.77
2022-10-18T17:09:34.920Z,101051.70
2022-10-18T17:12:03.039Z,101053.54
2022-10-18T17:14:33.262Z,101058.83
2022-10-18T17:17:04.022Z,101055.98
2022-10-18T17:19:31.871Z,101055.54
2022-10-18T17:22:02.533Z,101058.59
2022-10-18T17:24:38.686Z,101065.89
2022-10-18T17:27:09.432Z,101084.52
2022-10-18T17:29:37.350Z,101087.98
2022-10-18T17:32:08.059Z,101080.06
2022-10-18T17:34:38.592Z,101076.75
2022-10-18T17:37:41.491Z,101079.30
2022-10-18T17:40:19.700Z,101080.85
2022-10-18T17:43:12.059Z,101087.58
2022-10-18T17:45:55.144Z,101092.67
2022-10-18T17:48:26.083Z,101092.33
2022-10-18T17:50:56.542Z,101095.45
2022-10-18T17:53:28.526Z,101092.11
2022-10-18T17:56:03.524Z,101085.29
2022-10-18T17:58:32.191Z,101084.16
2022-10-18T18:01:14.551Z,101085.29
2022-10-18T18:03:44.490Z,101082.56
2022-10-18T18:06:32.608Z,101084.23
2022-10-18T18:09:13.702Z,101080.23
2022-10-18T18:11:48.261Z,101086.54
2022-10-18T18:14:16.194Z,101092.00
2022-10-18T18:16:46.096Z,101092.08
2022-10-18T18:19:16.107Z,101093.91
2022-10-18T18:21:46.302Z,101092.14
2022-10-18T18:24:17.170Z,101092.48
2022-10-18T18:26:49.081Z,101094.41
2022-10-18T18:29:21.137Z,101092.51
2022-10-18T18:31:54.025Z,101093.92
2022-10-18T18:34:24.533Z,101094.05
2022-10-18T18:36:53.676Z,101091.54
2022-10-18T18:39:25.972Z,101092.23
2022-10-18T18:41:57.922Z,101093.11
2022-10-18T18:44:35.219Z,101094.88
2022-10-18T18:47:15.558Z,101088.27
2022-10-18T18:49:55.985Z,101088.22
2022-10-18T18:52:37.273Z,101091.45
2022-10-18T18:59:27.925Z,101086.77
2022-10-18T19:02:08.064Z,101087.91
2022-10-18T19:04:42.364Z,101084.55
2022-10-18T19:07:12.898Z,101087.20
2022-10-18T19:09:46.992Z,101088.10
2022-10-18T19:12:25.462Z,101087.00
2022-10-18T19:14:55.790Z,101088.20
2022-10-18T19:17:23.630Z,101087.19
2022-10-18T19:19:54.528Z,101085.21
2022-10-18T19:22:30.983Z,101086.20
2022-10-18T19:24:58.896Z,101086.33
2022-10-18T19:27:30.480Z,101090.23
2022-10-18T19:30:13.846Z,101080.09
2022-10-18T19:32:56.887Z,101084.02
2022-10-18T19:35:30.806Z,101081.33
2022-10-18T19:38:01.378Z,101078.85
2022-10-18T19:40:34.212Z,101082.77
2022-10-18T19:43:03.636Z,101082.16
2022-10-18T19:45:31.413Z,101082.39
2022-10-18T19:47:59.202Z,101085.29
2022-10-18T19:50:27.339Z,101083.05
2022-10-18T19:52:55.113Z,101080.59
2022-10-18T19:55:22.881Z,101080.90
2022-10-18T19:57:51.795Z,101075.95
2022-10-18T20:00:19.889Z,101067.38
2022-10-18T20:02:47.718Z,101069.49
2022-10-18T20:05:15.637Z,101068.27
2022-10-18T20:07:45.278Z,101067.23
2022-10-18T20:10:13.527Z,101074.50
2022-10-18T20:12:44.411Z,101074.81
2022-10-18T20:15:23.689Z,101076.33
2022-10-18T20:17:56.179Z,101080.19
2022-10-18T20:20:24.002Z,101079.76
2022-10-18T20:22:53.509Z,101083.14
2022-10-18T20:25:21.227Z,101081.60
2022-10-18T20:27:49.690Z,101086.09
2022-10-18T20:30:17.556Z,101089.89
2022-10-18T20:32:45.345Z,101088.13
2022-10-18T20:35:52.471Z,101085.17
2022-10-18T20:38:59.529Z,101091.04
2022-10-18T20:41:36.445Z,101088.21
2022-10-18T20:44:11.683Z,101088.13
2022-10-18T20:46:40.699Z,101090.85
2022-10-18T20:49:19.965Z,101093.23
2022-10-18T20:51:47.982Z,101092.98
2022-10-18T20:54:15.738Z,101093.55
2022-10-18T20:56:43.594Z,101088.88
2022-10-18T20:59:11.592Z,101091.68
2022-10-18T21:01:39.798Z,101092.71
2022-10-18T21:04:09.689Z,101099.34
2022-10-18T21:06:40.949Z,101097.63
2022-10-18T21:09:12.229Z,101102.80
2022-10-18T21:11:42.329Z,101105.41
2022-10-18T21:14:13.348Z,101106.40
2022-10-18T21:16:41.743Z,101102.98
2022-10-18T21:19:12.873Z,101101.67
2022-10-18T21:21:42.679Z,101100.27
2022-10-18T21:24:11.521Z,101101.74
2022-10-18T21:26:39.937Z,101098.77
2022-10-18T21:29:08.248Z,101100.27
2022-10-18T21:31:39.094Z,101096.16
2022-10-18T21:34:12.825Z,101094.85
2022-10-18T21:36:42.049Z,101096.80
2022-10-18T21:39:15.294Z,101098.48
2022-10-18T21:42:02.503Z,101100.20
2022-10-18T21:44:40.736Z,101094.50
2022-10-18T21:47:15.969Z,101096.05
2022-10-18T21:53:32.488Z,101091.25
2022-10-18T22:00:05.634Z,101090.45
2022-10-18T22:02:34.853Z,101089.02
2022-10-18T22:05:03.853Z,101087.92
2022-10-18T22:07:33.948Z,101085.65
2022-10-18T22:10:01.990Z,101085.83
2022-10-18T22:12:29.740Z,101082.46
2022-10-18T22:14:57.522Z,101078.02
2022-10-18T22:17:25.513Z,101080.70
2022-10-18T22:19:53.227Z,101081.16
2022-10-18T22:22:21.075Z,101082.85
2022-10-18T22:24:50.830Z,101085.89
2022-10-18T22:27:20.865Z,101088.23
2022-10-18T22:29:48.589Z,101092.64
2022-10-18T22:32:16.352Z,101092.19
2022-10-18T22:34:44.117Z,101094.98
2022-10-18T22:37:11.860Z,101086.40
2022-10-18T22:39:40.086Z,101086.30
2022-10-18T22:42:07.962Z,101087.08
2022-10-18T22:44:35.706Z,101082.57
2022-10-18T22:47:03.501Z,101078.93
2022-10-18T22:49:31.256Z,101085.35
2022-10-18T22:51:58.983Z,101083.86
2022-10-18T22:54:26.730Z,101080.79
2022-10-18T22:56:54.968Z,101078.00
2022-10-18T23:00:18.881Z,101079.21
2022-10-18T23:03:23.278Z,101075.80
2022-10-18T23:05:51.973Z,101074.98
2022-10-18T23:08:19.815Z,101072.98
2022-10-18T23:10:47.906Z,101067.84
2022-10-18T23:13:15.642Z,101066.02
2022-10-18T23:15:43.368Z,101060.64
2022-10-18T23:18:11.127Z,101057.09
2022-10-18T23:20:38.863Z,101057.71
2022-10-18T23:23:06.976Z,101055.88
2022-10-18T23:25:36.763Z,101051.13
2022-10-18T23:28:05.525Z,101055.34
2022-10-18T23:30:33.836Z,101050.09
2022-10-18T23:33:01.636Z,101052.85
2022-10-18T23:35:30.132Z,101059.11
2022-10-18T23:37:57.868Z,101059.95
2022-10-18T23:40:25.648Z,101064.95
2022-10-18T23:42:53.780Z,101066.00
2022-10-18T23:45:21.536Z,101058.84
2022-10-18T23:47:49.276Z,101057.64
2022-10-18T23:50:17.139Z,101060.11
2022-10-18T23:52:44.845Z,101059.65
2022-10-18T23:55:12.605Z,101067.37
2022-10-18T23:57:40.368Z,101064.98
